Forside
METAR-TAF:

METAR-TAF

Lufthavne :

Fayetteville, Arkansas, USA

Breddekreds: 36-00-37N, længdekreds: 094-10-04W, højde: 381 m

Aktuelle vejr

Denne rapport blev lavet for 1 time og 5 minutter siden, kl. 20:53 UTC
Vind 3 kt fra øst
Temperatur 20°C
Fugtighed 28%
Tryk 1017 hPa
Sigt: 16.1 km
skyfri

METAR: KFYV 162053Z 08003KT 10SM CLR 20/01 A3004 RMK AO2 SLP170 T02000006 56024

Tid: 15:58 (21:58 UTC)

Vejrudsigter

Denne rapport blev lavet for 4 timer og 38 minutter siden, kl. 17:20 UTC
Foreløbig gælder fra 16 på 18 UTC til 17 på 18 UTC
Vind 4 kt fra østsydøst
Sigt: 10 km
skyfri
Fra 17 på 0200 UTC
Vind 5 kt fra syd
Sigt: 10 km
Spredte skyer i en højde af 25000 ft

TAF: KFYV 161720Z 1618/1718 12004KT P6SM SKC FM170200 19005KT P6SM SCT250

Vejrobservationer og prognoser fra mere end 4000 lufthavne (METAR og TAF).

De gule og røde prikker repræsenterer de meteorologiske stationer.

Flyt musen over at se navnet på stationen.

Så klik over at se vejr observationer og prognoser.

At skifte det kort: Klik på de grønne knapper med et sort kors for at zoome ind; på den grønne knap med en bindestreg for at zoome ud; eller på de grønne pile for tilstødende kort.


METAR-TAF: